sensor_id;sensor_type;location;lat;lon;timestamp;temperature;humidity
28524;DHT22;15734;50.904;6.922;2023-11-19T00:01:39;11.10;99.90
28524;DHT22;15734;50.904;6.922;2023-11-19T00:04:04;11.10;99.90
28524;DHT22;15734;50.904;6.922;2023-11-19T00:06:30;11.10;99.90
28524;DHT22;15734;50.904;6.922;2023-11-19T00:08:55;11.10;99.90
28524;DHT22;15734;50.904;6.922;2023-11-19T00:11:21;11.10;99.90
28524;DHT22;15734;50.904;6.922;2023-11-19T00:13:46;11.20;99.90
28524;DHT22;15734;50.904;6.922;2023-11-19T00:16:12;11.20;99.90
28524;DHT22;15734;50.904;6.922;2023-11-19T00:18:37;11.10;99.90
28524;DHT22;15734;50.904;6.922;2023-11-19T00:21:03;11.10;99.90
28524;DHT22;15734;50.904;6.922;2023-11-19T00:23:29;11.20;99.90
28524;DHT22;15734;50.904;6.922;2023-11-19T00:25:54;11.10;99.90
28524;DHT22;15734;50.904;6.922;2023-11-19T00:28:20;11.20;99.90
28524;DHT22;15734;50.904;6.922;2023-11-19T00:30:45;11.20;99.90
28524;DHT22;15734;50.904;6.922;2023-11-19T00:33:11;11.20;99.90
28524;DHT22;15734;50.904;6.922;2023-11-19T00:35:36;11.20;99.90
28524;DHT22;15734;50.904;6.922;2023-11-19T00:38:02;11.20;99.90
28524;DHT22;15734;50.904;6.922;2023-11-19T00:40:29;11.20;99.90
28524;DHT22;15734;50.904;6.922;2023-11-19T00:42:55;11.20;99.90
28524;DHT22;15734;50.904;6.922;2023-11-19T00:45:20;11.20;99.90
28524;DHT22;15734;50.904;6.922;2023-11-19T00:47:46;11.30;99.90
28524;DHT22;15734;50.904;6.922;2023-11-19T00:50:11;11.30;99.90
28524;DHT22;15734;50.904;6.922;2023-11-19T00:52:38;11.30;99.90
28524;DHT22;15734;50.904;6.922;2023-11-19T00:55:04;11.30;99.90
28524;DHT22;15734;50.904;6.922;2023-11-19T00:57:33;11.30;99.90
28524;DHT22;15734;50.904;6.922;2023-11-19T00:59:59;11.40;99.90
28524;DHT22;15734;50.904;6.922;2023-11-19T01:02:25;11.40;99.90
28524;DHT22;15734;50.904;6.922;2023-11-19T01:04:51;11.40;99.90
28524;DHT22;15734;50.904;6.922;2023-11-19T01:07:17;11.50;99.90
28524;DHT22;15734;50.904;6.922;2023-11-19T01:09:43;11.50;99.90
28524;DHT22;15734;50.904;6.922;2023-11-19T01:12:08;11.50;99.90
28524;DHT22;15734;50.904;6.922;2023-11-19T01:14:37;11.60;99.90
28524;DHT22;15734;50.904;6.922;2023-11-19T01:17:03;11.60;99.90
28524;DHT22;15734;50.904;6.922;2023-11-19T01:19:30;11.80;99.90
28524;DHT22;15734;50.904;6.922;2023-11-19T01:21:55;11.80;99.90
28524;DHT22;15734;50.904;6.922;2023-11-19T01:24:21;11.90;99.90
28524;DHT22;15734;50.904;6.922;2023-11-19T01:26:46;12.10;99.90
28524;DHT22;15734;50.904;6.922;2023-11-19T01:29:13;12.10;99.90
28524;DHT22;15734;50.904;6.922;2023-11-19T01:31:42;12.20;99.90
28524;DHT22;15734;50.904;6.922;2023-11-19T01:34:08;12.20;99.90
28524;DHT22;15734;50.904;6.922;2023-11-19T01:36:34;12.30;99.90
28524;DHT22;15734;50.904;6.922;2023-11-19T01:38:59;12.40;99.90
28524;DHT22;15734;50.904;6.922;2023-11-19T01:41:25;12.30;99.90
28524;DHT22;15734;50.904;6.922;2023-11-19T01:43:50;12.40;99.90
28524;DHT22;15734;50.904;6.922;2023-11-19T01:46:16;12.50;99.90
28524;DHT22;15734;50.904;6.922;2023-11-19T01:48:45;12.70;99.90
28524;DHT22;15734;50.904;6.922;2023-11-19T01:51:12;12.80;99.90
28524;DHT22;15734;50.904;6.922;2023-11-19T01:53:39;12.80;99.90
28524;DHT22;15734;50.904;6.922;2023-11-19T01:56:07;12.90;99.90
28524;DHT22;15734;50.904;6.922;2023-11-19T01:58:37;13.00;99.90
28524;DHT22;15734;50.904;6.922;2023-11-19T02:01:07;13.20;99.90
28524;DHT22;15734;50.904;6.922;2023-11-19T02:03:34;13.20;99.90
28524;DHT22;15734;50.904;6.922;2023-11-19T02:06:00;13.30;99.90
28524;DHT22;15734;50.904;6.922;2023-11-19T02:08:26;13.30;99.90
28524;DHT22;15734;50.904;6.922;2023-11-19T02:10:52;13.30;99.90
28524;DHT22;15734;50.904;6.922;2023-11-19T02:13:18;13.30;99.90
28524;DHT22;15734;50.904;6.922;2023-11-19T02:15:44;13.30;99.90
28524;DHT22;15734;50.904;6.922;2023-11-19T02:18:27;13.30;99.90
28524;DHT22;15734;50.904;6.922;2023-11-19T02:20:54;13.30;99.90
28524;DHT22;15734;50.904;6.922;2023-11-19T02:23:21;13.30;99.90
28524;DHT22;15734;50.904;6.922;2023-11-19T02:28:26;13.30;99.90
28524;DHT22;15734;50.904;6.922;2023-11-19T02:30:52;13.20;99.90
28524;DHT22;15734;50.904;6.922;2023-11-19T02:33:18;13.30;99.90
28524;DHT22;15734;50.904;6.922;2023-11-19T02:35:44;13.20;99.90
28524;DHT22;15734;50.904;6.922;2023-11-19T02:38:09;13.20;99.90
28524;DHT22;15734;50.904;6.922;2023-11-19T02:40:36;13.20;99.90
28524;DHT22;15734;50.904;6.922;2023-11-19T02:43:02;13.20;99.90
28524;DHT22;15734;50.904;6.922;2023-11-19T02:45:30;13.20;99.90
28524;DHT22;15734;50.904;6.922;2023-11-19T02:47:56;13.00;99.90
28524;DHT22;15734;50.904;6.922;2023-11-19T02:50:22;13.00;99.90
28524;DHT22;15734;50.904;6.922;2023-11-19T02:52:53;13.20;99.90
28524;DHT22;15734;50.904;6.922;2023-11-19T02:55:19;13.00;99.90
28524;DHT22;15734;50.904;6.922;2023-11-19T02:57:45;13.00;99.90
28524;DHT22;15734;50.904;6.922;2023-11-19T03:00:18;13.10;99.90
28524;DHT22;15734;50.904;6.922;2023-11-19T03:02:44;13.10;99.90
28524;DHT22;15734;50.904;6.922;2023-11-19T03:05:13;13.10;99.90
28524;DHT22;15734;50.904;6.922;2023-11-19T03:07:43;12.90;99.90
28524;DHT22;15734;50.904;6.922;2023-11-19T03:10:10;13.00;99.90
28524;DHT22;15734;50.904;6.922;2023-11-19T03:12:42;12.90;99.90
28524;DHT22;15734;50.904;6.922;2023-11-19T03:15:08;12.80;99.90
28524;DHT22;15734;50.904;6.922;2023-11-19T03:17:40;12.90;99.90
28524;DHT22;15734;50.904;6.922;2023-11-19T03:20:08;12.90;99.90
28524;DHT22;15734;50.904;6.922;2023-11-19T03:22:43;12.90;99.90
28524;DHT22;15734;50.904;6.922;2023-11-19T03:25:09;12.90;99.90
28524;DHT22;15734;50.904;6.922;2023-11-19T03:27:38;13.00;99.90
28524;DHT22;15734;50.904;6.922;2023-11-19T03:30:05;12.90;99.90
28524;DHT22;15734;50.904;6.922;2023-11-19T03:32:32;12.80;99.90
28524;DHT22;15734;50.904;6.922;2023-11-19T03:34:58;12.80;99.90
28524;DHT22;15734;50.904;6.922;2023-11-19T03:37:25;12.80;99.90
28524;DHT22;15734;50.904;6.922;2023-11-19T03:39:51;12.90;99.90
28524;DHT22;15734;50.904;6.922;2023-11-19T03:42:19;13.00;99.90
28524;DHT22;15734;50.904;6.922;2023-11-19T03:44:44;12.90;99.90
28524;DHT22;15734;50.904;6.922;2023-11-19T03:47:10;12.90;99.90
28524;DHT22;15734;50.904;6.922;2023-11-19T03:49:35;12.90;99.90
28524;DHT22;15734;50.904;6.922;2023-11-19T03:52:01;12.90;99.90
28524;DHT22;15734;50.904;6.922;2023-11-19T03:54:27;12.90;99.90
28524;DHT22;15734;50.904;6.922;2023-11-19T03:56:53;13.00;99.90
28524;DHT22;15734;50.904;6.922;2023-11-19T03:59:18;13.00;99.90
28524;DHT22;15734;50.904;6.922;2023-11-19T04:01:45;13.00;99.90
28524;DHT22;15734;50.904;6.922;2023-11-19T04:04:11;13.00;99.90
28524;DHT22;15734;50.904;6.922;2023-11-19T04:06:37;13.00;99.90
28524;DHT22;15734;50.904;6.922;2023-11-19T04:09:03;13.00;99.90
28524;DHT22;15734;50.904;6.922;2023-11-19T04:11:29;13.10;99.90
28524;DHT22;15734;50.904;6.922;2023-11-19T04:13:54;13.00;99.90
28524;DHT22;15734;50.904;6.922;2023-11-19T04:16:26;13.20;99.90
28524;DHT22;15734;50.904;6.922;2023-11-19T04:18:53;13.20;99.90
28524;DHT22;15734;50.904;6.922;2023-11-19T04:21:18;13.20;99.90
28524;DHT22;15734;50.904;6.922;2023-11-19T04:23:44;13.30;99.90
28524;DHT22;15734;50.904;6.922;2023-11-19T04:26:09;13.30;99.90
28524;DHT22;15734;50.904;6.922;2023-11-19T04:28:35;13.30;99.90
28524;DHT22;15734;50.904;6.922;2023-11-19T04:31:00;13.20;99.90
28524;DHT22;15734;50.904;6.922;2023-11-19T04:33:26;13.30;99.90
28524;DHT22;15734;50.904;6.922;2023-11-19T04:35:52;13.30;99.90
28524;DHT22;15734;50.904;6.922;2023-11-19T04:38:17;13.40;99.90
28524;DHT22;15734;50.904;6.922;2023-11-19T04:40:43;13.40;99.90
28524;DHT22;15734;50.904;6.922;2023-11-19T04:43:09;13.40;99.90
28524;DHT22;15734;50.904;6.922;2023-11-19T04:45:34;13.40;99.90
28524;DHT22;15734;50.904;6.922;2023-11-19T04:48:00;13.30;99.90
28524;DHT22;15734;50.904;6.922;2023-11-19T04:50:25;13.30;99.90
28524;DHT22;15734;50.904;6.922;2023-11-19T04:52:52;13.30;99.90
28524;DHT22;15734;50.904;6.922;2023-11-19T04:55:19;13.30;99.90
28524;DHT22;15734;50.904;6.922;2023-11-19T04:57:44;13.40;99.90
28524;DHT22;15734;50.904;6.922;2023-11-19T05:00:10;13.30;99.90
28524;DHT22;15734;50.904;6.922;2023-11-19T05:02:36;13.20;99.90
28524;DHT22;15734;50.904;6.922;2023-11-19T05:05:03;13.20;99.90
28524;DHT22;15734;50.904;6.922;2023-11-19T05:07:30;13.20;99.90
28524;DHT22;15734;50.904;6.922;2023-11-19T05:09:55;13.20;99.90
28524;DHT22;15734;50.904;6.922;2023-11-19T05:12:21;13.10;99.90
28524;DHT22;15734;50.904;6.922;2023-11-19T05:14:46;13.10;99.90
28524;DHT22;15734;50.904;6.922;2023-11-19T05:17:16;13.00;99.90
28524;DHT22;15734;50.904;6.922;2023-11-19T05:19:43;13.00;99.90
28524;DHT22;15734;50.904;6.922;2023-11-19T05:22:08;12.90;99.90
28524;DHT22;15734;50.904;6.922;2023-11-19T05:24:34;12.90;99.90
28524;DHT22;15734;50.904;6.922;2023-11-19T05:27:01;12.90;99.90
28524;DHT22;15734;50.904;6.922;2023-11-19T05:29:27;12.90;99.90
28524;DHT22;15734;50.904;6.922;2023-11-19T05:31:53;12.90;99.90
28524;DHT22;15734;50.904;6.922;2023-11-19T05:34:20;12.80;99.90
28524;DHT22;15734;50.904;6.922;2023-11-19T05:36:46;12.80;99.90
28524;DHT22;15734;50.904;6.922;2023-11-19T05:39:12;12.80;99.90
28524;DHT22;15734;50.904;6.922;2023-11-19T05:41:37;12.90;99.90
28524;DHT22;15734;50.904;6.922;2023-11-19T05:44:03;12.80;99.90
28524;DHT22;15734;50.904;6.922;2023-11-19T05:46:28;12.90;99.90
28524;DHT22;15734;50.904;6.922;2023-11-19T05:48:54;13.00;99.90
28524;DHT22;15734;50.904;6.922;2023-11-19T05:51:19;12.90;99.90
28524;DHT22;15734;50.904;6.922;2023-11-19T05:53:45;12.90;99.90
28524;DHT22;15734;50.904;6.922;2023-11-19T05:56:11;12.90;99.90
28524;DHT22;15734;50.904;6.922;2023-11-19T05:58:37;12.80;99.90
28524;DHT22;15734;50.904;6.922;2023-11-19T06:01:03;12.90;99.90
28524;DHT22;15734;50.904;6.922;2023-11-19T06:03:29;13.00;99.90
28524;DHT22;15734;50.904;6.922;2023-11-19T06:05:55;13.00;99.90
28524;DHT22;15734;50.904;6.922;2023-11-19T06:08:21;12.90;99.90
28524;DHT22;15734;50.904;6.922;2023-11-19T06:10:46;12.80;99.90
28524;DHT22;15734;50.904;6.922;2023-11-19T06:13:13;13.00;99.90
28524;DHT22;15734;50.904;6.922;2023-11-19T06:15:43;13.00;99.90
28524;DHT22;15734;50.904;6.922;2023-11-19T06:18:09;12.90;99.90
28524;DHT22;15734;50.904;6.922;2023-11-19T06:20:35;12.90;99.90
28524;DHT22;15734;50.904;6.922;2023-11-19T06:23:00;12.90;99.90
28524;DHT22;15734;50.904;6.922;2023-11-19T06:25:26;12.80;99.90
28524;DHT22;15734;50.904;6.922;2023-11-19T06:27:53;12.80;99.90
28524;DHT22;15734;50.904;6.922;2023-11-19T06:30:19;12.80;99.90
28524;DHT22;15734;50.904;6.922;2023-11-19T06:32:45;12.80;99.90
28524;DHT22;15734;50.904;6.922;2023-11-19T06:35:12;12.80;99.90
28524;DHT22;15734;50.904;6.922;2023-11-19T06:37:39;12.70;99.90
28524;DHT22;15734;50.904;6.922;2023-11-19T06:40:05;12.60;99.90
28524;DHT22;15734;50.904;6.922;2023-11-19T06:42:31;12.70;99.90
28524;DHT22;15734;50.904;6.922;2023-11-19T06:44:57;12.80;99.90
28524;DHT22;15734;50.904;6.922;2023-11-19T06:47:26;12.90;99.90
28524;DHT22;15734;50.904;6.922;2023-11-19T06:49:52;12.80;99.90
28524;DHT22;15734;50.904;6.922;2023-11-19T06:52:18;12.80;99.90
28524;DHT22;15734;50.904;6.922;2023-11-19T06:54:44;12.80;99.90
28524;DHT22;15734;50.904;6.922;2023-11-19T06:57:11;12.80;99.90
28524;DHT22;15734;50.904;6.922;2023-11-19T06:59:37;12.90;99.90
28524;DHT22;15734;50.904;6.922;2023-11-19T07:02:03;12.80;99.90
28524;DHT22;15734;50.904;6.922;2023-11-19T07:04:30;12.90;99.90
28524;DHT22;15734;50.904;6.922;2023-11-19T07:06:55;12.80;99.90
28524;DHT22;15734;50.904;6.922;2023-11-19T07:09:21;12.80;99.90
28524;DHT22;15734;50.904;6.922;2023-11-19T07:11:48;12.70;99.90
28524;DHT22;15734;50.904;6.922;2023-11-19T07:14:15;12.80;99.90
28524;DHT22;15734;50.904;6.922;2023-11-19T07:16:41;12.80;99.90
28524;DHT22;15734;50.904;6.922;2023-11-19T07:19:08;12.70;99.90
28524;DHT22;15734;50.904;6.922;2023-11-19T07:21:34;12.70;99.90
28524;DHT22;15734;50.904;6.922;2023-11-19T07:23:59;12.70;99.90
28524;DHT22;15734;50.904;6.922;2023-11-19T07:26:25;12.70;99.90
28524;DHT22;15734;50.904;6.922;2023-11-19T07:28:52;12.60;99.90
28524;DHT22;15734;50.904;6.922;2023-11-19T07:31:17;12.70;99.90
28524;DHT22;15734;50.904;6.922;2023-11-19T07:33:46;12.60;99.90
28524;DHT22;15734;50.904;6.922;2023-11-19T07:36:13;12.60;99.90
28524;DHT22;15734;50.904;6.922;2023-11-19T07:38:39;12.50;99.90
28524;DHT22;15734;50.904;6.922;2023-11-19T07:41:05;12.50;99.90
28524;DHT22;15734;50.904;6.922;2023-11-19T07:43:32;12.60;99.90
28524;DHT22;15734;50.904;6.922;2023-11-19T07:45:57;12.50;99.90
28524;DHT22;15734;50.904;6.922;2023-11-19T07:48:25;12.60;99.90
28524;DHT22;15734;50.904;6.922;2023-11-19T07:50:52;12.60;99.90
28524;DHT22;15734;50.904;6.922;2023-11-19T07:53:19;12.60;99.90
28524;DHT22;15734;50.904;6.922;2023-11-19T07:55:44;12.60;99.90
28524;DHT22;15734;50.904;6.922;2023-11-19T07:58:11;12.70;99.90
28524;DHT22;15734;50.904;6.922;2023-11-19T08:00:37;12.60;99.90
28524;DHT22;15734;50.904;6.922;2023-11-19T08:03:03;12.60;99.90
28524;DHT22;15734;50.904;6.922;2023-11-19T08:05:29;12.50;99.90
28524;DHT22;15734;50.904;6.922;2023-11-19T08:07:55;12.50;99.90
28524;DHT22;15734;50.904;6.922;2023-11-19T08:10:20;12.40;99.90
28524;DHT22;15734;50.904;6.922;2023-11-19T08:12:46;12.40;99.90
28524;DHT22;15734;50.904;6.922;2023-11-19T08:15:11;12.50;99.90
28524;DHT22;15734;50.904;6.922;2023-11-19T08:17:37;12.40;99.90
28524;DHT22;15734;50.904;6.922;2023-11-19T08:20:03;12.50;99.90
28524;DHT22;15734;50.904;6.922;2023-11-19T08:22:30;12.60;99.90
28524;DHT22;15734;50.904;6.922;2023-11-19T08:24:56;12.50;99.90
28524;DHT22;15734;50.904;6.922;2023-11-19T08:27:22;12.60;99.90
28524;DHT22;15734;50.904;6.922;2023-11-19T08:29:53;12.70;99.90
28524;DHT22;15734;50.904;6.922;2023-11-19T08:32:45;12.70;99.90
28524;DHT22;15734;50.904;6.922;2023-11-19T08:35:11;12.90;99.90
28524;DHT22;15734;50.904;6.922;2023-11-19T08:37:36;12.90;99.90
28524;DHT22;15734;50.904;6.922;2023-11-19T08:40:03;12.90;99.90
28524;DHT22;15734;50.904;6.922;2023-11-19T08:42:30;12.90;99.90
28524;DHT22;15734;50.904;6.922;2023-11-19T08:44:55;12.90;99.90
28524;DHT22;15734;50.904;6.922;2023-11-19T08:47:21;13.00;99.90
28524;DHT22;15734;50.904;6.922;2023-11-19T08:49:50;13.00;99.90
28524;DHT22;15734;50.904;6.922;2023-11-19T08:52:15;13.00;99.90
28524;DHT22;15734;50.904;6.922;2023-11-19T08:54:43;13.10;99.90
28524;DHT22;15734;50.904;6.922;2023-11-19T08:57:08;13.00;99.90
28524;DHT22;15734;50.904;6.922;2023-11-19T08:59:35;13.10;99.90
28524;DHT22;15734;50.904;6.922;2023-11-19T09:02:00;13.20;99.90
28524;DHT22;15734;50.904;6.922;2023-11-19T09:04:27;13.10;99.90
28524;DHT22;15734;50.904;6.922;2023-11-19T09:06:52;13.20;99.90
28524;DHT22;15734;50.904;6.922;2023-11-19T09:09:18;13.20;99.90
28524;DHT22;15734;50.904;6.922;2023-11-19T09:11:44;13.30;99.90
28524;DHT22;15734;50.904;6.922;2023-11-19T09:14:09;13.30;99.90
28524;DHT22;15734;50.904;6.922;2023-11-19T09:16:35;13.40;99.90
28524;DHT22;15734;50.904;6.922;2023-11-19T09:19:00;13.30;99.90
28524;DHT22;15734;50.904;6.922;2023-11-19T09:21:28;13.40;99.90
28524;DHT22;15734;50.904;6.922;2023-11-19T09:23:55;13.40;99.90
28524;DHT22;15734;50.904;6.922;2023-11-19T09:26:20;13.40;99.90
28524;DHT22;15734;50.904;6.922;2023-11-19T09:28:46;13.40;99.90
28524;DHT22;15734;50.904;6.922;2023-11-19T09:31:15;13.40;99.90
28524;DHT22;15734;50.904;6.922;2023-11-19T09:33:41;13.50;99.90
28524;DHT22;15734;50.904;6.922;2023-11-19T09:36:07;13.50;99.90
28524;DHT22;15734;50.904;6.922;2023-11-19T09:38:32;13.40;99.90
28524;DHT22;15734;50.904;6.922;2023-11-19T09:41:01;13.50;99.90
28524;DHT22;15734;50.904;6.922;2023-11-19T09:43:27;13.60;99.90
28524;DHT22;15734;50.904;6.922;2023-11-19T09:45:54;13.60;99.90
28524;DHT22;15734;50.904;6.922;2023-11-19T09:48:21;13.70;99.90
28524;DHT22;15734;50.904;6.922;2023-11-19T09:50:50;13.80;99.90
28524;DHT22;15734;50.904;6.922;2023-11-19T09:53:17;14.00;99.90
28524;DHT22;15734;50.904;6.922;2023-11-19T09:55:43;14.00;99.90
28524;DHT22;15734;50.904;6.922;2023-11-19T09:58:10;14.00;99.90
28524;DHT22;15734;50.904;6.922;2023-11-19T10:00:37;14.10;99.90
28524;DHT22;15734;50.904;6.922;2023-11-19T10:03:04;14.10;99.90
28524;DHT22;15734;50.904;6.922;2023-11-19T10:05:32;14.30;99.90
28524;DHT22;15734;50.904;6.922;2023-11-19T10:07:58;14.30;99.90
28524;DHT22;15734;50.904;6.922;2023-11-19T10:10:23;14.20;99.90
28524;DHT22;15734;50.904;6.922;2023-11-19T10:12:51;14.20;99.90
28524;DHT22;15734;50.904;6.922;2023-11-19T10:15:21;14.30;99.90
28524;DHT22;15734;50.904;6.922;2023-11-19T10:17:48;14.20;99.90
28524;DHT22;15734;50.904;6.922;2023-11-19T10:20:13;14.30;99.90
28524;DHT22;15734;50.904;6.922;2023-11-19T10:22:39;14.30;99.90
28524;DHT22;15734;50.904;6.922;2023-11-19T10:25:25;14.30;99.90
28524;DHT22;15734;50.904;6.922;2023-11-19T10:27:52;14.20;99.90
28524;DHT22;15734;50.904;6.922;2023-11-19T10:30:24;14.10;99.90
28524;DHT22;15734;50.904;6.922;2023-11-19T10:33:09;14.20;99.90
28524;DHT22;15734;50.904;6.922;2023-11-19T10:35:56;14.30;99.90
28524;DHT22;15734;50.904;6.922;2023-11-19T10:38:27;14.20;99.90
28524;DHT22;15734;50.904;6.922;2023-11-19T10:40:54;14.20;99.90
28524;DHT22;15734;50.904;6.922;2023-11-19T10:43:23;14.30;99.90
28524;DHT22;15734;50.904;6.922;2023-11-19T10:45:49;14.50;99.90
28524;DHT22;15734;50.904;6.922;2023-11-19T10:48:15;14.60;99.90
28524;DHT22;15734;50.904;6.922;2023-11-19T10:50:42;14.50;99.90
28524;DHT22;15734;50.904;6.922;2023-11-19T10:53:10;14.50;99.90
28524;DHT22;15734;50.904;6.922;2023-11-19T10:55:39;14.60;99.90
28524;DHT22;15734;50.904;6.922;2023-11-19T10:58:15;14.50;99.90
28524;DHT22;15734;50.904;6.922;2023-11-19T11:00:48;14.40;99.90
28524;DHT22;15734;50.904;6.922;2023-11-19T11:03:18;14.40;99.90
28524;DHT22;15734;50.904;6.922;2023-11-19T11:05:46;14.40;99.90
28524;DHT22;15734;50.904;6.922;2023-11-19T11:08:13;14.30;99.90
28524;DHT22;15734;50.904;6.922;2023-11-19T11:10:55;14.30;99.90
28524;DHT22;15734;50.904;6.922;2023-11-19T11:13:23;14.30;99.90
28524;DHT22;15734;50.904;6.922;2023-11-19T11:15:53;14.30;99.90
28524;DHT22;15734;50.904;6.922;2023-11-19T11:18:22;14.40;99.90
28524;DHT22;15734;50.904;6.922;2023-11-19T11:20:49;14.50;99.90
28524;DHT22;15734;50.904;6.922;2023-11-19T11:23:47;14.50;99.90
28524;DHT22;15734;50.904;6.922;2023-11-19T11:29:02;14.80;99.90
28524;DHT22;15734;50.904;6.922;2023-11-19T11:34:48;14.80;99.90
28524;DHT22;15734;50.904;6.922;2023-11-19T11:37:26;14.60;99.90
28524;DHT22;15734;50.904;6.922;2023-11-19T11:39:57;14.70;99.90
28524;DHT22;15734;50.904;6.922;2023-11-19T11:45:03;14.70;99.90
28524;DHT22;15734;50.904;6.922;2023-11-19T11:50:09;14.60;99.90
28524;DHT22;15734;50.904;6.922;2023-11-19T11:58:22;14.80;99.90
28524;DHT22;15734;50.904;6.922;2023-11-19T12:00:51;14.80;99.90
28524;DHT22;15734;50.904;6.922;2023-11-19T12:03:20;14.90;99.90
28524;DHT22;15734;50.904;6.922;2023-11-19T12:05:49;14.90;99.90
28524;DHT22;15734;50.904;6.922;2023-11-19T12:08:18;15.10;99.90
28524;DHT22;15734;50.904;6.922;2023-11-19T12:10:53;15.40;99.90
28524;DHT22;15734;50.904;6.922;2023-11-19T12:13:20;15.40;99.90
28524;DHT22;15734;50.904;6.922;2023-11-19T12:20:48;15.50;99.90
28524;DHT22;15734;50.904;6.922;2023-11-19T12:23:14;15.60;99.90
28524;DHT22;15734;50.904;6.922;2023-11-19T12:25:40;15.60;99.90
28524;DHT22;15734;50.904;6.922;2023-11-19T12:28:11;15.60;99.90
28524;DHT22;15734;50.904;6.922;2023-11-19T12:30:36;15.60;99.90
28524;DHT22;15734;50.904;6.922;2023-11-19T12:33:08;15.60;99.90
28524;DHT22;15734;50.904;6.922;2023-11-19T12:35:42;15.70;99.90
28524;DHT22;15734;50.904;6.922;2023-11-19T12:38:08;15.30;99.90
28524;DHT22;15734;50.904;6.922;2023-11-19T12:40:43;15.20;99.90
28524;DHT22;15734;50.904;6.922;2023-11-19T12:43:08;15.00;99.90
28524;DHT22;15734;50.904;6.922;2023-11-19T12:45:35;15.00;99.90
28524;DHT22;15734;50.904;6.922;2023-11-19T12:48:07;14.80;99.90
28524;DHT22;15734;50.904;6.922;2023-11-19T12:50:57;14.80;99.90
28524;DHT22;15734;50.904;6.922;2023-11-19T12:53:24;14.80;99.90
28524;DHT22;15734;50.904;6.922;2023-11-19T12:55:55;14.80;99.90
28524;DHT22;15734;50.904;6.922;2023-11-19T12:58:36;14.70;99.90
28524;DHT22;15734;50.904;6.922;2023-11-19T13:01:05;14.60;99.90
28524;DHT22;15734;50.904;6.922;2023-11-19T13:03:36;14.50;99.90
28524;DHT22;15734;50.904;6.922;2023-11-19T13:06:09;14.50;99.90
28524;DHT22;15734;50.904;6.922;2023-11-19T13:08:42;14.70;99.90
28524;DHT22;15734;50.904;6.922;2023-11-19T13:11:09;14.70;99.90
28524;DHT22;15734;50.904;6.922;2023-11-19T13:13:59;14.60;99.90
28524;DHT22;15734;50.904;6.922;2023-11-19T13:16:40;14.60;99.90
28524;DHT22;15734;50.904;6.922;2023-11-19T13:19:08;14.80;99.90
28524;DHT22;15734;50.904;6.922;2023-11-19T13:21:41;14.90;99.90
28524;DHT22;15734;50.904;6.922;2023-11-19T13:24:10;14.90;99.90
28524;DHT22;15734;50.904;6.922;2023-11-19T13:26:36;15.10;99.90
28524;DHT22;15734;50.904;6.922;2023-11-19T13:29:01;15.00;99.90
28524;DHT22;15734;50.904;6.922;2023-11-19T13:31:28;14.80;99.90
28524;DHT22;15734;50.904;6.922;2023-11-19T13:33:54;14.80;99.90
28524;DHT22;15734;50.904;6.922;2023-11-19T13:36:19;14.80;99.90
28524;DHT22;15734;50.904;6.922;2023-11-19T13:38:45;14.80;99.90
28524;DHT22;15734;50.904;6.922;2023-11-19T13:41:10;14.80;99.90
28524;DHT22;15734;50.904;6.922;2023-11-19T13:43:37;14.90;99.90
28524;DHT22;15734;50.904;6.922;2023-11-19T13:46:03;15.00;99.90
28524;DHT22;15734;50.904;6.922;2023-11-19T13:48:29;15.10;99.90
28524;DHT22;15734;50.904;6.922;2023-11-19T13:50:55;15.20;99.90
28524;DHT22;15734;50.904;6.922;2023-11-19T13:53:21;15.20;99.90
28524;DHT22;15734;50.904;6.922;2023-11-19T13:55:48;15.20;99.90
28524;DHT22;15734;50.904;6.922;2023-11-19T13:58:13;14.90;99.90
28524;DHT22;15734;50.904;6.922;2023-11-19T14:00:39;14.90;99.90
28524;DHT22;15734;50.904;6.922;2023-11-19T14:03:07;15.00;99.90
28524;DHT22;15734;50.904;6.922;2023-11-19T14:05:32;14.90;99.90
28524;DHT22;15734;50.904;6.922;2023-11-19T14:07:58;14.90;99.90
28524;DHT22;15734;50.904;6.922;2023-11-19T14:10:24;14.90;99.90
28524;DHT22;15734;50.904;6.922;2023-11-19T14:12:49;14.80;99.90
28524;DHT22;15734;50.904;6.922;2023-11-19T14:15:15;14.80;99.90
28524;DHT22;15734;50.904;6.922;2023-11-19T14:17:43;14.80;99.90
28524;DHT22;15734;50.904;6.922;2023-11-19T14:20:09;14.80;99.90
28524;DHT22;15734;50.904;6.922;2023-11-19T14:22:43;14.80;99.90
28524;DHT22;15734;50.904;6.922;2023-11-19T14:25:09;14.70;99.90
28524;DHT22;15734;50.904;6.922;2023-11-19T14:27:39;14.70;99.90
28524;DHT22;15734;50.904;6.922;2023-11-19T14:30:09;14.60;99.90
28524;DHT22;15734;50.904;6.922;2023-11-19T14:32:37;14.60;99.90
28524;DHT22;15734;50.904;6.922;2023-11-19T14:35:03;14.60;99.90
28524;DHT22;15734;50.904;6.922;2023-11-19T14:37:29;14.50;99.90
28524;DHT22;15734;50.904;6.922;2023-11-19T14:39:58;14.50;99.90
28524;DHT22;15734;50.904;6.922;2023-11-19T14:42:24;14.50;99.90
28524;DHT22;15734;50.904;6.922;2023-11-19T14:44:53;14.50;99.90
28524;DHT22;15734;50.904;6.922;2023-11-19T14:47:19;14.50;99.90
28524;DHT22;15734;50.904;6.922;2023-11-19T14:49:45;14.50;99.90
28524;DHT22;15734;50.904;6.922;2023-11-19T14:52:11;14.40;99.90
28524;DHT22;15734;50.904;6.922;2023-11-19T14:54:37;14.40;99.90
28524;DHT22;15734;50.904;6.922;2023-11-19T14:57:04;14.30;99.90
28524;DHT22;15734;50.904;6.922;2023-11-19T14:59:29;14.20;99.90
28524;DHT22;15734;50.904;6.922;2023-11-19T15:01:55;14.10;99.90
28524;DHT22;15734;50.904;6.922;2023-11-19T15:04:20;14.10;99.90
28524;DHT22;15734;50.904;6.922;2023-11-19T15:06:46;14.10;99.90
28524;DHT22;15734;50.904;6.922;2023-11-19T15:09:12;14.00;99.90
28524;DHT22;15734;50.904;6.922;2023-11-19T15:11:43;14.00;99.90
28524;DHT22;15734;50.904;6.922;2023-11-19T15:14:08;13.90;99.90
28524;DHT22;15734;50.904;6.922;2023-11-19T15:16:34;13.80;99.90
28524;DHT22;15734;50.904;6.922;2023-11-19T15:19:00;13.80;99.90
28524;DHT22;15734;50.904;6.922;2023-11-19T15:21:28;13.80;99.90
28524;DHT22;15734;50.904;6.922;2023-11-19T15:23:55;13.70;99.90
28524;DHT22;15734;50.904;6.922;2023-11-19T15:26:20;13.70;99.90
28524;DHT22;15734;50.904;6.922;2023-11-19T15:28:46;13.70;99.90
28524;DHT22;15734;50.904;6.922;2023-11-19T15:31:12;13.70;99.90
28524;DHT22;15734;50.904;6.922;2023-11-19T15:33:38;13.70;99.90
28524;DHT22;15734;50.904;6.922;2023-11-19T15:36:05;13.70;99.90
28524;DHT22;15734;50.904;6.922;2023-11-19T15:38:36;13.60;99.90
28524;DHT22;15734;50.904;6.922;2023-11-19T15:41:01;13.60;99.90
28524;DHT22;15734;50.904;6.922;2023-11-19T15:43:28;13.50;99.90
28524;DHT22;15734;50.904;6.922;2023-11-19T15:45:54;13.50;99.90
28524;DHT22;15734;50.904;6.922;2023-11-19T15:48:20;13.40;99.90
28524;DHT22;15734;50.904;6.922;2023-11-19T15:50:45;13.40;99.90
28524;DHT22;15734;50.904;6.922;2023-11-19T15:53:11;13.40;99.90
28524;DHT22;15734;50.904;6.922;2023-11-19T15:55:37;13.30;99.90